createdAt,value
2018-05-27T00:01:12.282Z,10.90
2018-05-27T00:03:39.854Z,10.70
2018-05-27T00:06:07.613Z,10.73
2018-05-27T00:08:35.346Z,9.83
2018-05-27T00:11:02.921Z,9.30
2018-05-27T00:13:30.527Z,10.97
2018-05-27T00:15:58.106Z,10.90
2018-05-27T00:18:25.682Z,12.40
2018-05-27T00:20:53.269Z,10.83
2018-05-27T00:23:20.964Z,10.90
2018-05-27T00:25:48.541Z,10.10
2018-05-27T00:28:16.085Z,8.67
2018-05-27T00:30:44.444Z,9.43
2018-05-27T00:33:12.783Z,9.77
2018-05-27T00:35:40.439Z,10.50
2018-05-27T00:38:08.060Z,11.47
2018-05-27T00:40:36.451Z,11.53
2018-05-27T00:43:04.810Z,10.47
2018-05-27T00:45:32.357Z,10.33
2018-05-27T00:47:59.997Z,10.83
2018-05-27T00:50:27.586Z,10.30
2018-05-27T00:52:55.514Z,11.20
2018-05-27T00:55:23.052Z,9.53
2018-05-27T00:57:50.648Z,10.80
2018-05-27T01:00:18.189Z,10.10
2018-05-27T01:02:45.742Z,10.50
2018-05-27T01:05:13.354Z,10.80
2018-05-27T01:07:40.920Z,9.90
2018-05-27T01:10:09.271Z,11.30
2018-05-27T01:12:36.825Z,11.00
2018-05-27T01:15:04.426Z,9.83
2018-05-27T01:17:31.987Z,10.43
2018-05-27T01:20:00.871Z,10.47
2018-05-27T01:22:28.436Z,10.60
2018-05-27T01:24:56.097Z,8.50
2018-05-27T01:27:23.639Z,9.80
2018-05-27T01:29:51.184Z,10.10
2018-05-27T01:32:18.768Z,11.27
2018-05-27T01:34:46.584Z,11.00
2018-05-27T01:37:14.343Z,10.40
2018-05-27T01:39:41.918Z,9.37
2018-05-27T01:42:09.492Z,10.27
2018-05-27T01:44:37.049Z,10.37
2018-05-27T01:47:04.626Z,10.40
2018-05-27T01:49:32.322Z,10.47
2018-05-27T01:51:59.919Z,10.40
2018-05-27T01:54:27.497Z,10.50
2018-05-27T01:56:55.117Z,10.37
2018-05-27T01:59:22.776Z,10.83
2018-05-27T02:01:50.460Z,9.47
2018-05-27T02:04:18.041Z,10.57
2018-05-27T02:06:45.593Z,13.80
2018-05-27T02:09:13.236Z,11.33
2018-05-27T02:11:40.797Z,10.47
2018-05-27T02:14:08.387Z,12.17
2018-05-27T02:16:36.012Z,11.03
2018-05-27T02:19:03.604Z,11.23
2018-05-27T02:21:31.165Z,11.67
2018-05-27T02:23:58.749Z,10.00
2018-05-27T02:28:58.797Z,10.00
2018-05-27T02:31:26.512Z,10.67
2018-05-27T02:33:54.060Z,10.07
2018-05-27T02:36:21.655Z,9.73
2018-05-27T02:38:50.124Z,10.77
2018-05-27T02:41:17.709Z,10.17
2018-05-27T02:43:45.293Z,10.40
2018-05-27T02:46:12.869Z,10.07
2018-05-27T02:48:40.428Z,10.40
2018-05-27T02:51:08.044Z,10.27
2018-05-27T02:53:36.352Z,10.10
2018-05-27T02:56:03.925Z,9.70
2018-05-27T02:58:31.505Z,9.80
2018-05-27T03:00:59.106Z,9.73
2018-05-27T03:03:26.648Z,9.80
2018-05-27T03:05:55.252Z,9.57
2018-05-27T03:08:22.811Z,9.77
2018-05-27T03:10:50.398Z,10.03
2018-05-27T03:13:17.982Z,9.57
2018-05-27T03:15:45.544Z,9.83
2018-05-27T03:18:13.217Z,9.43
2018-05-27T03:20:40.772Z,10.40
2018-05-27T03:23:08.359Z,9.73
2018-05-27T03:25:36.693Z,9.67
2018-05-27T03:28:04.250Z,10.37
2018-05-27T03:30:31.805Z,8.73
2018-05-27T03:32:59.549Z,9.47
2018-05-27T03:35:27.148Z,9.83
2018-05-27T03:37:55.520Z,9.13
2018-05-27T03:40:23.149Z,9.77
2018-05-27T03:42:50.723Z,9.57
2018-05-27T03:45:18.288Z,9.63
2018-05-27T03:47:45.853Z,9.27
2018-05-27T03:50:13.576Z,9.10
2018-05-27T03:52:41.114Z,8.40
2018-05-27T03:55:09.429Z,9.40
2018-05-27T03:57:36.988Z,8.83
2018-05-27T04:00:04.548Z,8.83
2018-05-27T04:02:32.360Z,8.73
2018-05-27T04:05:11.745Z,8.30
2018-05-27T04:07:51.035Z,8.13
2018-05-27T04:10:18.609Z,8.17
2018-05-27T04:12:46.300Z,7.87
2018-05-27T04:15:13.877Z,8.30
2018-05-27T04:17:41.432Z,7.87
2018-05-27T04:20:08.972Z,8.27
2018-05-27T04:22:36.549Z,7.20
2018-05-27T04:25:04.080Z,7.80
2018-05-27T04:27:31.636Z,7.33
2018-05-27T04:29:59.192Z,7.83
2018-05-27T04:32:27.656Z,7.57
2018-05-27T04:34:55.979Z,7.50
2018-05-27T04:37:23.549Z,8.00
2018-05-27T04:39:51.117Z,7.20
2018-05-27T04:42:18.835Z,7.20
2018-05-27T04:44:47.171Z,8.13
2018-05-27T04:47:14.762Z,7.87
2018-05-27T04:49:42.320Z,7.70
2018-05-27T04:52:10.801Z,6.70
2018-05-27T04:54:39.135Z,6.97
2018-05-27T04:57:06.701Z,6.70
2018-05-27T04:59:34.265Z,6.93
2018-05-27T05:02:01.822Z,6.77
2018-05-27T05:04:29.374Z,6.87
2018-05-27T05:06:56.950Z,6.63
2018-05-27T05:09:24.619Z,6.77
2018-05-27T05:11:52.161Z,6.60
2018-05-27T05:14:19.691Z,6.93
2018-05-27T05:16:47.263Z,7.13
2018-05-27T05:19:14.814Z,6.83
2018-05-27T05:21:42.383Z,6.97
2018-05-27T05:24:10.111Z,7.03
2018-05-27T05:26:37.675Z,7.07
2018-05-27T05:29:05.250Z,6.50
2018-05-27T05:31:32.900Z,6.17
2018-05-27T05:34:00.479Z,6.57
2018-05-27T05:36:28.048Z,6.30
2018-05-27T05:38:55.618Z,6.43
2018-05-27T05:41:23.181Z,6.50
2018-05-27T05:43:50.841Z,6.53
2018-05-27T05:46:18.502Z,7.03
2018-05-27T05:48:46.097Z,6.30
2018-05-27T05:51:13.651Z,6.90
2018-05-27T05:53:42.109Z,6.77
2018-05-27T05:56:09.999Z,6.30
2018-05-27T05:58:38.308Z,6.37
2018-05-27T06:01:05.877Z,6.23
2018-05-27T06:03:33.444Z,6.10
2018-05-27T06:06:01.029Z,6.27
2018-05-27T06:08:28.584Z,5.50
2018-05-27T06:10:56.156Z,6.20
2018-05-27T06:13:23.732Z,5.80
2018-05-27T06:15:51.327Z,6.00
2018-05-27T06:18:19.088Z,5.90
2018-05-27T06:20:46.747Z,5.13
2018-05-27T06:23:14.304Z,5.67
2018-05-27T06:25:41.943Z,5.40
2018-05-27T06:28:09.465Z,5.40
2018-05-27T06:30:37.107Z,5.47
2018-05-27T06:33:04.676Z,5.47
2018-05-27T06:35:32.220Z,5.37
2018-05-27T06:37:59.877Z,5.40
2018-05-27T06:40:27.424Z,4.80
2018-05-27T06:42:55.085Z,4.80
2018-05-27T06:45:22.792Z,4.63
2018-05-27T06:47:50.359Z,4.33
2018-05-27T06:50:17.922Z,4.50
2018-05-27T06:52:45.490Z,4.53
2018-05-27T06:55:13.076Z,4.47
2018-05-27T06:57:41.412Z,4.10
2018-05-27T07:00:10.457Z,4.57
2018-05-27T07:02:38.044Z,4.23
2018-05-27T07:05:05.820Z,4.20
2018-05-27T07:07:34.159Z,3.87
2018-05-27T07:10:01.760Z,3.97
2018-05-27T07:12:29.507Z,4.00
2018-05-27T07:14:57.056Z,3.90
2018-05-27T07:17:24.603Z,4.10
2018-05-27T07:19:52.199Z,4.17
2018-05-27T07:22:19.769Z,4.00
2018-05-27T07:24:47.345Z,3.90
2018-05-27T07:27:14.884Z,4.10
2018-05-27T07:29:42.440Z,3.80
2018-05-27T07:32:10.875Z,3.50
2018-05-27T07:34:38.456Z,3.43
2018-05-27T07:37:06.013Z,3.67
2018-05-27T07:39:33.560Z,3.80
2018-05-27T07:42:01.161Z,3.50
2018-05-27T07:44:29.496Z,3.90
2018-05-27T07:46:57.067Z,3.93
2018-05-27T07:49:24.633Z,3.87
2018-05-27T07:51:52.190Z,3.73
2018-05-27T07:54:19.816Z,3.43
2018-05-27T07:56:47.395Z,3.73
2018-05-27T07:59:14.965Z,3.50
2018-05-27T08:01:42.555Z,3.80
2018-05-27T08:04:10.253Z,3.80
2018-05-27T08:06:37.857Z,3.70
2018-05-27T08:09:06.382Z,3.73
2018-05-27T08:11:34.700Z,3.63
2018-05-27T08:14:02.339Z,3.70
2018-05-27T08:16:30.092Z,3.43
2018-05-27T08:18:57.768Z,3.90
2018-05-27T08:21:25.641Z,3.20
2018-05-27T08:23:53.199Z,3.70
2018-05-27T08:26:20.785Z,3.50
2018-05-27T08:28:48.371Z,3.60
2018-05-27T08:31:16.043Z,3.37
2018-05-27T08:33:43.592Z,3.27
2018-05-27T08:36:11.236Z,3.42
2018-05-27T08:38:38.789Z,3.15
2018-05-27T08:41:06.473Z,3.65
2018-05-27T08:43:34.084Z,3.25
2018-05-27T08:46:02.433Z,2.95
2018-05-27T08:48:30.137Z,3.30
2018-05-27T08:50:57.781Z,3.25
2018-05-27T08:53:25.363Z,3.17
2018-05-27T08:55:52.936Z,3.30
2018-05-27T08:58:20.562Z,3.00
2018-05-27T09:00:48.153Z,3.30
2018-05-27T09:03:15.740Z,3.70
2018-05-27T09:05:43.329Z,3.12
2018-05-27T09:08:10.908Z,3.20
2018-05-27T09:10:38.495Z,3.50
2018-05-27T09:13:06.094Z,3.20
2018-05-27T09:15:33.674Z,3.33
2018-05-27T09:18:01.299Z,3.30
2018-05-27T09:20:28.843Z,3.45
2018-05-27T09:22:56.429Z,3.50
2018-05-27T09:25:24.783Z,3.10
2018-05-27T09:27:52.348Z,3.37
2018-05-27T09:30:19.970Z,3.03
2018-05-27T09:32:47.568Z,3.50
2018-05-27T09:35:15.198Z,3.22
2018-05-27T09:37:42.795Z,3.12
2018-05-27T09:40:10.392Z,2.97
2018-05-27T09:42:37.980Z,3.65
2018-05-27T09:45:05.599Z,3.20
2018-05-27T09:47:33.968Z,2.90
2018-05-27T09:50:01.567Z,3.12
2018-05-27T09:52:29.322Z,3.30
2018-05-27T09:54:56.899Z,2.87
2018-05-27T09:57:24.506Z,3.08
2018-05-27T09:59:52.906Z,3.53
2018-05-27T10:02:20.508Z,3.20
2018-05-27T10:04:48.131Z,3.53
2018-05-27T10:07:15.873Z,3.30
2018-05-27T10:09:43.420Z,2.80
2018-05-27T10:12:11.030Z,2.90
2018-05-27T10:14:38.661Z,2.90
2018-05-27T10:17:06.561Z,2.90
2018-05-27T10:19:35.005Z,2.97
2018-05-27T10:22:02.589Z,3.35
2018-05-27T10:24:30.196Z,3.60
2018-05-27T10:26:58.052Z,3.70
2018-05-27T10:29:25.692Z,4.00
2018-05-27T10:31:53.540Z,3.30
2018-05-27T10:34:21.118Z,3.42
2018-05-27T10:36:48.716Z,3.35
2018-05-27T10:39:16.387Z,2.97
2018-05-27T10:41:43.893Z,3.00
2018-05-27T10:44:11.648Z,3.40
2018-05-27T10:46:39.268Z,3.58
2018-05-27T10:49:06.856Z,3.20
2018-05-27T10:51:34.545Z,3.30
2018-05-27T10:54:02.179Z,3.37
2018-05-27T10:56:29.733Z,3.10
2018-05-27T10:58:57.324Z,3.25
2018-05-27T11:01:24.901Z,3.22
2018-05-27T11:03:52.555Z,3.05
2018-05-27T11:06:20.190Z,3.50
2018-05-27T11:08:48.011Z,3.03
2018-05-27T11:11:15.575Z,3.37
2018-05-27T11:13:43.915Z,3.20
2018-05-27T11:16:11.488Z,3.42
2018-05-27T11:18:39.252Z,3.58
2018-05-27T11:21:06.808Z,3.70
2018-05-27T11:23:34.401Z,3.00
2018-05-27T11:26:01.957Z,3.10
2018-05-27T11:28:30.483Z,3.10
2018-05-27T11:30:58.066Z,4.35
2018-05-27T11:33:25.657Z,10.48
2018-05-27T11:35:53.355Z,4.50
2018-05-27T11:38:20.920Z,4.10
2018-05-27T11:40:48.476Z,3.42
2018-05-27T11:43:16.052Z,3.58
2018-05-27T11:45:43.651Z,3.20
2018-05-27T11:48:12.293Z,2.97
2018-05-27T11:50:40.885Z,3.22
2018-05-27T11:53:08.453Z,3.03
2018-05-27T11:55:36.059Z,3.17
2018-05-27T11:58:03.751Z,2.90
2018-05-27T12:00:31.353Z,3.97
2018-05-27T12:02:58.932Z,3.67
2018-05-27T12:05:27.311Z,3.28
2018-05-27T12:07:54.945Z,3.22
2018-05-27T12:10:22.565Z,3.20
2018-05-27T12:12:50.149Z,3.10
2018-05-27T12:15:17.817Z,3.40
2018-05-27T12:17:45.459Z,3.10
2018-05-27T12:20:13.024Z,3.37
2018-05-27T12:22:40.641Z,2.95
2018-05-27T12:25:08.992Z,3.10
2018-05-27T12:27:38.165Z,2.60
2018-05-27T12:30:05.825Z,2.78
2018-05-27T12:32:34.277Z,3.05
2018-05-27T12:35:01.904Z,2.80
2018-05-27T12:37:30.349Z,3.30
2018-05-27T12:39:57.913Z,3.00
2018-05-27T12:42:25.722Z,3.00
2018-05-27T12:44:53.341Z,3.20
2018-05-27T12:47:20.933Z,3.05
2018-05-27T12:49:48.605Z,3.05
2018-05-27T12:52:16.704Z,2.85
2018-05-27T12:54:44.297Z,2.97
2018-05-27T12:57:12.108Z,2.40
2018-05-27T12:59:39.708Z,2.60
2018-05-27T13:02:07.324Z,2.58
2018-05-27T13:04:35.686Z,2.40
2018-05-27T13:07:04.785Z,2.55
2018-05-27T13:09:32.597Z,2.92
2018-05-27T13:12:00.942Z,2.92
2018-05-27T13:14:30.132Z,2.62
2018-05-27T13:16:58.763Z,2.97
2018-05-27T13:19:26.121Z,2.80
2018-05-27T13:21:53.733Z,3.10
2018-05-27T13:24:22.104Z,3.28
2018-05-27T13:26:49.719Z,3.20
2018-05-27T13:29:17.303Z,3.30
2018-05-27T13:31:44.885Z,3.47
2018-05-27T13:34:13.403Z,3.40
2018-05-27T13:36:41.125Z,3.50
2018-05-27T13:39:08.931Z,3.50
2018-05-27T13:41:36.526Z,3.73
2018-05-27T13:44:04.329Z,4.10
2018-05-27T13:46:32.829Z,3.80
2018-05-27T13:49:00.469Z,3.60
2018-05-27T13:51:29.099Z,3.73
2018-05-27T13:53:56.723Z,3.60
2018-05-27T13:56:24.386Z,3.80
2018-05-27T13:58:52.785Z,3.47
2018-05-27T14:01:20.384Z,4.53
2018-05-27T14:03:47.962Z,4.93
2018-05-27T14:06:15.557Z,4.63
2018-05-27T14:08:43.410Z,5.20
2018-05-27T14:11:11.766Z,6.00
2018-05-27T14:13:39.398Z,6.57
2018-05-27T14:16:06.954Z,6.27
2018-05-27T14:18:34.563Z,6.83
2018-05-27T14:21:02.165Z,6.47
2018-05-27T14:23:29.756Z,7.23
2018-05-27T14:25:57.440Z,9.50
2018-05-27T14:28:25.799Z,8.10
2018-05-27T14:30:53.362Z,8.07
2018-05-27T14:33:21.052Z,9.77
2018-05-27T14:35:48.613Z,10.67
2018-05-27T14:38:16.267Z,17.00
2018-05-27T14:40:43.889Z,11.90
2018-05-27T14:43:11.506Z,7.97
2018-05-27T14:45:39.099Z,11.70
2018-05-27T14:48:06.740Z,10.03
2018-05-27T14:50:34.415Z,10.00
2018-05-27T14:53:02.199Z,12.13
2018-05-27T14:55:29.850Z,11.63
2018-05-27T14:57:57.483Z,8.60
2018-05-27T15:00:25.869Z,8.63
2018-05-27T15:02:53.652Z,8.33
2018-05-27T15:05:21.431Z,7.33
2018-05-27T15:07:49.057Z,6.30
2018-05-27T15:10:17.164Z,6.30
2018-05-27T15:12:44.779Z,5.53
2018-05-27T15:15:12.549Z,6.47
2018-05-27T15:17:40.319Z,6.67
2018-05-27T15:20:08.134Z,7.00
2018-05-27T15:22:35.798Z,6.20
2018-05-27T15:25:03.398Z,7.57
2018-05-27T15:27:31.027Z,7.47
2018-05-27T15:29:59.414Z,7.30
2018-05-27T15:32:27.583Z,7.27
2018-05-27T15:34:55.991Z,7.60
2018-05-27T15:37:23.612Z,6.80
2018-05-27T15:39:51.348Z,7.23
2018-05-27T15:42:18.961Z,7.20
2018-05-27T15:44:46.844Z,6.80
2018-05-27T15:47:14.424Z,6.87
2018-05-27T15:49:42.088Z,6.90
2018-05-27T15:52:09.748Z,6.63
2018-05-27T15:54:37.368Z,6.20
2018-05-27T15:57:05.008Z,6.20
2018-05-27T15:59:33.353Z,7.07
2018-05-27T16:02:00.941Z,7.10
2018-05-27T16:04:28.613Z,7.40
2018-05-27T16:06:56.194Z,6.73
2018-05-27T16:09:23.789Z,7.90
2018-05-27T16:11:51.618Z,8.13
2018-05-27T16:14:19.395Z,7.67
2018-05-27T16:16:47.252Z,7.50
2018-05-27T16:19:15.045Z,7.47
2018-05-27T16:21:42.911Z,7.30
2018-05-27T16:24:10.809Z,6.97
2018-05-27T16:26:38.480Z,7.20
2018-05-27T16:29:06.084Z,6.63
2018-05-27T16:31:33.712Z,7.30
2018-05-27T16:34:02.169Z,7.03
2018-05-27T16:36:29.802Z,6.53
2018-05-27T16:38:57.589Z,8.10
2018-05-27T16:41:25.210Z,7.27
2018-05-27T16:43:52.876Z,7.13
2018-05-27T16:46:20.530Z,6.90
2018-05-27T16:48:48.190Z,7.10
2018-05-27T16:51:15.803Z,6.03
2018-05-27T16:53:43.468Z,6.13
2018-05-27T16:56:11.052Z,6.00
2018-05-27T16:58:38.670Z,6.00
2018-05-27T17:01:06.294Z,5.50
2018-05-27T17:03:33.854Z,6.30
2018-05-27T17:06:01.587Z,6.60
2018-05-27T17:08:29.989Z,5.67
2018-05-27T17:10:57.880Z,6.30
2018-05-27T17:13:25.461Z,5.90
2018-05-27T17:15:53.263Z,5.90
2018-05-27T17:18:20.832Z,5.10
2018-05-27T17:20:48.414Z,5.60
2018-05-27T17:23:16.245Z,5.87
2018-05-27T17:25:44.687Z,6.10
2018-05-27T17:28:12.334Z,5.97
2018-05-27T17:30:40.099Z,5.77
2018-05-27T17:33:07.859Z,6.13
2018-05-27T17:35:35.554Z,6.00
2018-05-27T17:38:03.175Z,6.23
2018-05-27T17:40:30.846Z,5.80
2018-05-27T17:42:58.583Z,6.70
2018-05-27T17:45:26.253Z,6.83
2018-05-27T17:47:55.663Z,6.90
2018-05-27T17:50:23.339Z,6.43
2018-05-27T17:52:50.933Z,7.40
2018-05-27T17:55:18.630Z,6.70
2018-05-27T17:57:46.211Z,7.07
2018-05-27T18:00:13.989Z,7.20
2018-05-27T18:02:41.564Z,7.20
2018-05-27T18:05:09.157Z,7.20
2018-05-27T18:07:37.063Z,7.23
2018-05-27T18:10:04.714Z,6.97
2018-05-27T18:12:32.354Z,8.10
2018-05-27T18:15:00.036Z,7.47
2018-05-27T18:17:27.795Z,8.00
2018-05-27T18:19:55.404Z,7.83
2018-05-27T18:22:23.757Z,7.53
2018-05-27T18:24:51.591Z,7.87
2018-05-27T18:27:19.261Z,7.97
2018-05-27T18:29:47.000Z,8.23
2018-05-27T18:32:14.790Z,8.40
2018-05-27T18:34:43.555Z,7.80
2018-05-27T18:37:11.369Z,8.73
2018-05-27T18:39:38.968Z,9.07
2018-05-27T18:42:06.612Z,9.27
2018-05-27T18:44:34.288Z,8.50
2018-05-27T18:47:01.900Z,8.20
2018-05-27T18:49:29.608Z,8.03
2018-05-27T18:51:58.240Z,8.10
2018-05-27T18:54:25.848Z,8.20
2018-05-27T18:56:53.494Z,8.73
2018-05-27T18:59:21.135Z,8.43
2018-05-27T19:01:48.745Z,9.30
2018-05-27T19:04:17.288Z,8.90
2018-05-27T19:06:45.945Z,8.83
2018-05-27T19:09:13.552Z,10.07
2018-05-27T19:11:41.464Z,10.97
2018-05-27T19:14:09.126Z,11.03
2018-05-27T19:16:36.774Z,9.97
2018-05-27T19:19:04.374Z,10.20
2018-05-27T19:21:32.282Z,9.77
2018-05-27T19:24:00.059Z,8.93
2018-05-27T19:26:28.429Z,10.33
2018-05-27T19:28:56.086Z,9.97
2018-05-27T19:31:23.787Z,10.07
2018-05-27T19:33:51.373Z,11.23
2018-05-27T19:36:18.935Z,11.43
2018-05-27T19:38:46.565Z,10.60
2018-05-27T19:41:14.215Z,10.60
2018-05-27T19:43:41.875Z,9.50
2018-05-27T19:46:09.504Z,10.23
2018-05-27T19:48:37.855Z,10.07
2018-05-27T19:51:05.629Z,10.53
2018-05-27T19:53:33.219Z,11.23
2018-05-27T19:56:01.602Z,10.83
2018-05-27T19:58:29.456Z,11.33
2018-05-27T20:00:57.374Z,10.30
2018-05-27T20:03:24.996Z,11.17
2018-05-27T20:05:52.716Z,12.37
2018-05-27T20:08:20.456Z,12.23
2018-05-27T20:10:48.161Z,11.07
2018-05-27T20:13:16.018Z,11.87
2018-05-27T20:15:43.681Z,10.70
2018-05-27T20:18:11.295Z,11.43
2018-05-27T20:20:39.140Z,10.73
2018-05-27T20:23:07.553Z,10.57
2018-05-27T20:25:35.205Z,11.47
2018-05-27T20:28:02.892Z,12.00
2018-05-27T20:30:30.611Z,11.23
2018-05-27T20:32:58.232Z,11.40
2018-05-27T20:35:25.939Z,12.13
2018-05-27T20:37:53.711Z,11.80
2018-05-27T20:40:21.286Z,11.60
2018-05-27T20:42:48.964Z,11.90
2018-05-27T20:45:16.711Z,12.70
2018-05-27T20:47:44.483Z,13.13
2018-05-27T20:50:12.105Z,12.80
2018-05-27T20:52:39.756Z,12.67
2018-05-27T20:55:08.116Z,10.80
2018-05-27T20:57:35.701Z,13.03
2018-05-27T21:00:04.135Z,12.10
2018-05-27T21:02:31.750Z,12.27
2018-05-27T21:04:59.321Z,12.93
2018-05-27T21:07:27.048Z,12.13
2018-05-27T21:09:55.482Z,13.17
2018-05-27T21:12:23.235Z,11.97
2018-05-27T21:14:50.830Z,13.43
2018-05-27T21:17:18.438Z,13.40
2018-05-27T21:19:46.107Z,12.63
2018-05-27T21:22:13.975Z,12.00
2018-05-27T21:24:41.605Z,11.53
2018-05-27T21:27:09.274Z,12.30
2018-05-27T21:29:36.873Z,13.90
2018-05-27T21:32:04.457Z,12.53
2018-05-27T21:34:32.225Z,13.40
2018-05-27T21:36:59.828Z,14.43
2018-05-27T21:39:28.241Z,14.90
2018-05-27T21:41:56.076Z,14.40
2018-05-27T21:44:23.691Z,13.93
2018-05-27T21:46:51.305Z,14.47
2018-05-27T21:49:18.916Z,14.90
2018-05-27T21:51:46.539Z,14.73
2018-05-27T21:54:14.118Z,16.27
2018-05-27T21:56:41.702Z,14.90
2018-05-27T21:59:09.374Z,14.67
2018-05-27T22:01:37.744Z,14.80
2018-05-27T22:04:05.524Z,15.43
2018-05-27T22:06:33.867Z,14.63
2018-05-27T22:09:01.468Z,15.37
2018-05-27T22:11:29.783Z,14.53
2018-05-27T22:13:57.465Z,15.80
2018-05-27T22:16:26.559Z,14.70
2018-05-27T22:18:54.265Z,15.33
2018-05-27T22:21:21.941Z,16.60
2018-05-27T22:23:49.538Z,15.87
2018-05-27T22:26:17.219Z,14.93
2018-05-27T22:28:44.804Z,16.20
2018-05-27T22:31:12.398Z,13.70
2018-05-27T22:33:39.962Z,11.47
2018-05-27T22:36:07.600Z,11.90
2018-05-27T22:38:35.170Z,13.60
2018-05-27T22:41:02.778Z,13.50
2018-05-27T22:43:30.493Z,11.80
2018-05-27T22:45:58.064Z,12.67
2018-05-27T22:48:25.645Z,12.93
2018-05-27T22:50:53.336Z,13.10
2018-05-27T22:53:21.038Z,13.33
2018-05-27T22:55:48.803Z,13.50
2018-05-27T22:58:16.371Z,13.93
2018-05-27T23:00:43.981Z,12.17
2018-05-27T23:03:11.531Z,12.60
2018-05-27T23:05:39.097Z,12.17
2018-05-27T23:08:06.697Z,13.77
2018-05-27T23:10:34.295Z,13.03
2018-05-27T23:13:01.872Z,14.03
2018-05-27T23:15:29.685Z,12.10
2018-05-27T23:17:57.264Z,12.33
2018-05-27T23:20:25.052Z,12.23
2018-05-27T23:22:52.612Z,12.83
2018-05-27T23:25:20.219Z,13.20
2018-05-27T23:27:47.821Z,12.93
2018-05-27T23:30:15.388Z,13.60
2018-05-27T23:32:42.961Z,13.37
2018-05-27T23:35:10.668Z,13.43
2018-05-27T23:37:38.426Z,11.63
2018-05-27T23:40:06.196Z,12.20
2018-05-27T23:42:33.767Z,12.27
2018-05-27T23:45:01.346Z,12.57
2018-05-27T23:47:28.932Z,12.60
2018-05-27T23:49:59.556Z,12.97
2018-05-27T23:52:27.216Z,12.60
2018-05-27T23:54:54.803Z,12.67
2018-05-27T23:57:22.407Z,13.80
2018-05-27T23:59:50.000Z,13.17
